Time;durP1;ratioP1;P1;durP2;ratioP2;P2;SDS_P1;SDS_P2;PMS_P1;PMS_P2;Temp;Humidity;BMP_temperature;BMP_pressure;BME280_temperature;BME280_humidity;BME280_pressure;Samples;Min_cycle;Max_cycle;Signal;HPM_P1;HPM_P2
2022/07/07 00:00:45;;;;;;;8.85;4.95;;;20.50;67.30;;;;;;5013848;28;20022;-71
2022/07/07 00:03:11;;;;;;;8.95;3.97;;;20.50;67.30;;;;;;5015250;28;20021;-72
2022/07/07 00:05:39;;;;;;;7.53;4.18;;;20.50;67.40;;;;;;5026914;28;20704;-73
2022/07/07 00:08:05;;;;;;;7.75;4.03;;;20.50;67.50;;;;;;5000357;28;20089;-71
2022/07/07 00:10:31;;;;;;;8.52;4.55;;;20.50;67.60;;;;;;5008937;28;20050;-72
2022/07/07 00:12:57;;;;;;;7.43;3.95;;;20.40;67.50;;;;;;5015037;28;20026;-72
2022/07/07 00:15:22;;;;;;;8.35;4.07;;;20.50;67.60;;;;;;5017204;28;20032;-72
2022/07/07 00:17:48;;;;;;;8.02;4.10;;;20.50;67.60;;;;;;5020687;28;20366;-71
2022/07/07 00:20:14;;;;;;;8.85;4.25;;;20.40;67.60;;;;;;5022845;28;20113;-71
2022/07/07 00:22:39;;;;;;;6.75;3.83;;;20.40;67.60;;;;;;5014603;28;20160;-71
2022/07/07 00:25:06;;;;;;;8.00;4.20;;;20.40;67.70;;;;;;5014982;28;20035;-71
2022/07/07 00:27:32;;;;;;;8.75;4.07;;;20.40;67.70;;;;;;5015987;28;20099;-71
2022/07/07 00:29:58;;;;;;;7.05;4.20;;;20.40;67.80;;;;;;5027682;28;20029;-72
2022/07/07 00:32:23;;;;;;;9.98;4.60;;;20.40;67.80;;;;;;5028415;28;20040;-71
2022/07/07 00:34:49;;;;;;;8.07;3.95;;;20.40;67.80;;;;;;5026527;28;20417;-71
2022/07/07 00:37:15;;;;;;;13.45;4.57;;;20.40;67.90;;;;;;5010969;28;20423;-72
2022/07/07 00:39:40;;;;;;;7.38;4.20;;;20.40;68.00;;;;;;5014813;28;20013;-72
2022/07/07 00:42:06;;;;;;;7.70;4.55;;;20.40;68.00;;;;;;5023674;28;20037;-72
2022/07/07 00:44:31;;;;;;;7.88;3.88;;;20.40;68.10;;;;;;5017980;28;20041;-71
2022/07/07 00:46:58;;;;;;;6.40;3.63;;;20.40;68.20;;;;;;5017290;28;20029;-71
2022/07/07 00:49:24;;;;;;;8.98;4.20;;;20.40;68.20;;;;;;5014642;28;20422;-71
2022/07/07 00:51:51;;;;;;;6.85;3.80;;;20.40;68.30;;;;;;5015283;28;20067;-72
2022/07/07 00:54:17;;;;;;;10.00;4.50;;;20.40;68.40;;;;;;5025575;28;20095;-72
2022/07/07 00:56:42;;;;;;;8.52;4.95;;;20.40;68.50;;;;;;5018103;28;20060;-71
2022/07/07 00:59:08;;;;;;;9.07;4.80;;;20.40;68.70;;;;;;5034324;28;20065;-71
2022/07/07 01:01:39;;;;;;;9.30;4.65;;;20.40;68.80;;;;;;5018414;28;20026;-72
2022/07/07 01:04:08;;;;;;;9.43;5.28;;;20.40;68.90;;;;;;5028930;28;20021;-72
2022/07/07 01:06:34;;;;;;;8.38;5.03;;;20.40;69.00;;;;;;5007235;28;20401;-72
2022/07/07 01:09:01;;;;;;;8.98;4.97;;;20.40;69.10;;;;;;5014250;28;21506;-71
2022/07/07 01:11:26;;;;;;;8.43;5.07;;;20.40;69.40;;;;;;5013143;28;20112;-72
2022/07/07 01:13:52;;;;;;;8.55;4.65;;;20.40;69.50;;;;;;5013678;28;20434;-72
2022/07/07 01:16:17;;;;;;;11.05;5.15;;;20.40;69.70;;;;;;5017520;28;20100;-72
2022/07/07 01:18:44;;;;;;;9.50;5.55;;;20.30;70.00;;;;;;5027933;28;20030;-71
2022/07/07 01:21:13;;;;;;;12.90;5.95;;;20.40;70.20;;;;;;5026191;28;20030;-71
2022/07/07 01:23:39;;;;;;;9.55;5.57;;;20.30;70.60;;;;;;5033241;28;20450;-71
2022/07/07 01:26:04;;;;;;;8.63;5.47;;;20.30;70.70;;;;;;5017226;28;20025;-72
2022/07/07 01:28:30;;;;;;;8.15;5.15;;;20.30;70.80;;;;;;5021768;28;20029;-71
2022/07/07 01:30:58;;;;;;;12.50;5.35;;;20.40;71.00;;;;;;5021373;28;20057;-71
2022/07/07 01:33:24;;;;;;;8.32;5.05;;;20.40;71.10;;;;;;5036997;28;20366;-71
2022/07/07 01:35:52;;;;;;;9.77;5.35;;;20.30;71.20;;;;;;5023483;28;20108;-72
2022/07/07 01:38:18;;;;;;;8.75;4.88;;;20.30;71.30;;;;;;5030980;28;20112;-72
2022/07/07 01:40:44;;;;;;;9.93;4.75;;;20.30;71.30;;;;;;5017460;28;20087;-72
2022/07/07 01:43:09;;;;;;;9.07;5.13;;;20.30;71.30;;;;;;5020455;28;20032;-71
2022/07/07 01:45:35;;;;;;;8.25;5.03;;;20.30;71.40;;;;;;5024083;28;20025;-71
2022/07/07 01:48:00;;;;;;;8.98;4.68;;;20.30;71.40;;;;;;5033288;28;20025;-71
2022/07/07 01:50:26;;;;;;;10.48;4.45;;;20.40;71.60;;;;;;5030302;28;20461;-71
2022/07/07 01:52:51;;;;;;;9.23;4.80;;;20.30;71.70;;;;;;5031822;28;20113;-71
2022/07/07 01:55:17;;;;;;;11.82;4.75;;;20.30;71.70;;;;;;5032462;28;20446;-71
2022/07/07 01:57:43;;;;;;;11.07;5.00;;;20.30;71.90;;;;;;5028939;28;20029;-71
2022/07/07 02:00:09;;;;;;;8.02;4.07;;;20.30;71.90;;;;;;5030232;28;20052;-72
2022/07/07 02:02:35;;;;;;;8.43;4.70;;;20.30;72.00;;;;;;5014291;28;20396;-72
2022/07/07 02:05:00;;;;;;;9.93;4.50;;;20.30;71.90;;;;;;5031557;28;20033;-71
2022/07/07 02:07:26;;;;;;;8.05;3.97;;;20.30;72.10;;;;;;5024567;28;20359;-71
2022/07/07 02:09:51;;;;;;;7.90;4.05;;;20.30;72.00;;;;;;5023662;28;20060;-71
2022/07/07 02:12:18;;;;;;;7.25;3.78;;;20.30;71.90;;;;;;5027476;28;20116;-72
2022/07/07 02:14:43;;;;;;;9.02;3.78;;;20.30;71.90;;;;;;5020637;28;20465;-71
2022/07/07 02:17:09;;;;;;;7.75;3.45;;;20.30;71.80;;;;;;5021220;28;20038;-71
2022/07/07 02:19:35;;;;;;;7.78;2.97;;;20.30;71.70;;;;;;5014441;28;20030;-72
2022/07/07 02:22:00;;;;;;;8.20;3.05;;;20.30;71.60;;;;;;5014947;28;20455;-72
2022/07/07 02:24:26;;;;;;;8.32;3.88;;;20.30;71.50;;;;;;5033219;28;20332;-71
2022/07/07 02:26:51;;;;;;;6.82;3.15;;;20.30;71.50;;;;;;5002651;28;20033;-72
2022/07/07 02:29:17;;;;;;;8.50;3.50;;;20.40;71.60;;;;;;5017342;28;20363;-72
2022/07/07 02:31:43;;;;;;;7.30;2.88;;;20.30;71.70;;;;;;5020851;28;20045;-71
2022/07/07 02:34:09;;;;;;;7.88;3.25;;;20.30;71.90;;;;;;5014767;28;20030;-72
2022/07/07 02:36:34;;;;;;;8.30;3.00;;;20.30;72.10;;;;;;5013053;28;20045;-71
2022/07/07 02:39:00;;;;;;;6.90;3.17;;;20.30;72.30;;;;;;5012983;28;20033;-72
2022/07/07 02:41:25;;;;;;;5.32;2.50;;;20.30;72.30;;;;;;5015004;28;20127;-71
2022/07/07 02:43:51;;;;;;;5.38;2.13;;;20.20;72.30;;;;;;5002094;28;20026;-71
2022/07/07 02:46:17;;;;;;;5.38;2.45;;;20.20;72.50;;;;;;5013297;28;20062;-71
2022/07/07 02:48:43;;;;;;;5.53;2.40;;;20.10;72.70;;;;;;5014504;28;20135;-72
2022/07/07 02:51:08;;;;;;;5.70;2.20;;;20.00;72.90;;;;;;5020261;28;20116;-72
2022/07/07 02:53:35;;;;;;;5.78;2.30;;;20.00;73.20;;;;;;5021761;28;20054;-71
2022/07/07 02:56:01;;;;;;;5.47;2.20;;;19.90;73.70;;;;;;5031735;28;20049;-71
2022/07/07 02:58:27;;;;;;;4.45;1.95;;;19.80;74.00;;;;;;5015914;28;20025;-72
2022/07/07 03:00:54;;;;;;;5.05;2.10;;;19.70;74.90;;;;;;5023826;28;20040;-72
2022/07/07 03:03:20;;;;;;;5.18;2.00;;;19.70;74.40;;;;;;5017365;28;20034;-72
2022/07/07 03:05:46;;;;;;;4.07;1.77;;;19.60;74.50;;;;;;5016466;28;20025;-72
2022/07/07 03:08:13;;;;;;;4.43;2.00;;;19.60;74.50;;;;;;5015394;28;20036;-71
2022/07/07 03:10:39;;;;;;;3.85;1.70;;;19.60;74.60;;;;;;5018853;28;20587;-72
2022/07/07 03:13:05;;;;;;;4.72;1.85;;;19.60;74.70;;;;;;5017765;28;20431;-72
2022/07/07 03:15:30;;;;;;;5.35;2.03;;;19.50;74.70;;;;;;5025073;28;20030;-72
2022/07/07 03:17:56;;;;;;;5.03;1.75;;;19.50;74.80;;;;;;5026094;28;20034;-71
2022/07/07 03:20:22;;;;;;;3.13;1.73;;;19.50;74.90;;;;;;5029724;28;20083;-72
2022/07/07 03:22:47;;;;;;;4.03;1.63;;;19.50;74.90;;;;;;5013114;28;20036;-71
2022/07/07 03:25:13;;;;;;;3.75;1.80;;;19.50;75.60;;;;;;5027744;28;20029;-72
2022/07/07 03:27:39;;;;;;;3.55;1.90;;;19.50;75.00;;;;;;5016364;28;20036;-72
2022/07/07 03:30:08;;;;;;;4.22;1.85;;;19.50;75.10;;;;;;5015477;28;20034;-71
2022/07/07 03:32:34;;;;;;;5.07;1.80;;;19.40;75.10;;;;;;5013318;28;20026;-72
2022/07/07 03:35:00;;;;;;;3.63;1.52;;;19.40;75.10;;;;;;5013798;28;20030;-72
2022/07/07 03:37:25;;;;;;;4.72;2.05;;;19.40;75.20;;;;;;5011131;28;20044;-72
2022/07/07 03:39:51;;;;;;;3.90;1.77;;;19.40;75.40;;;;;;5013690;28;20014;-72
2022/07/07 03:42:17;;;;;;;5.60;2.10;;;19.40;75.40;;;;;;5016056;28;20497;-72
2022/07/07 03:44:43;;;;;;;5.07;1.95;;;19.40;76.20;;;;;;5011540;28;20439;-71
2022/07/07 03:47:08;;;;;;;4.07;1.67;;;19.40;75.60;;;;;;5013487;28;20340;-72
2022/07/07 03:49:34;;;;;;;4.00;1.85;;;19.40;75.70;;;;;;5014819;28;20426;-72
2022/07/07 03:52:00;;;;;;;4.28;1.80;;;19.30;75.80;;;;;;5015390;28;20367;-72
2022/07/07 03:54:26;;;;;;;4.95;1.90;;;19.30;75.80;;;;;;5005183;28;20097;-72
2022/07/07 03:56:52;;;;;;;3.97;1.90;;;19.30;75.90;;;;;;5010251;28;20030;-72
2022/07/07 03:59:17;;;;;;;4.68;2.15;;;19.30;76.10;;;;;;5011731;28;20048;-71
2022/07/07 04:01:45;;;;;;;4.47;1.98;;;19.30;76.20;;;;;;5021782;28;20017;-72
2022/07/07 04:04:15;;;;;;;7.30;2.05;;;19.30;76.20;;;;;;5006998;28;20037;-72
2022/07/07 04:06:41;;;;;;;3.72;1.85;;;19.30;76.40;;;;;;5007922;28;20034;-72
2022/07/07 04:09:07;;;;;;;3.95;2.08;;;19.30;76.40;;;;;;5024506;28;20038;-71
2022/07/07 04:11:32;;;;;;;5.00;2.05;;;19.20;76.50;;;;;;5014592;28;20124;-71
2022/07/07 04:13:58;;;;;;;5.05;1.83;;;19.30;76.60;;;;;;5012455;28;20038;-72
2022/07/07 04:16:23;;;;;;;5.35;2.13;;;19.20;76.50;;;;;;5013100;28;20057;-71
2022/07/07 04:18:49;;;;;;;4.40;1.85;;;19.30;76.60;;;;;;4996174;28;20025;-72
2022/07/07 04:21:15;;;;;;;6.47;2.33;;;19.30;76.70;;;;;;5015580;28;20029;-71
2022/07/07 04:23:40;;;;;;;3.95;2.00;;;19.30;76.70;;;;;;5009615;28;20036;-72
2022/07/07 04:26:06;;;;;;;4.22;1.85;;;19.30;76.80;;;;;;5013466;28;20507;-71
2022/07/07 04:28:31;;;;;;;6.70;2.13;;;19.30;76.70;;;;;;5011885;28;20037;-71
2022/07/07 04:30:57;;;;;;;6.20;2.20;;;19.30;76.80;;;;;;5013421;28;20116;-71
2022/07/07 04:33:23;;;;;;;5.25;2.10;;;19.30;77.00;;;;;;5012664;28;20362;-72
2022/07/07 04:35:49;;;;;;;5.05;1.98;;;19.20;77.00;;;;;;5012659;28;20026;-72
2022/07/07 04:38:14;;;;;;;3.58;1.60;;;19.30;76.90;;;;;;4995908;28;20363;-72
2022/07/07 04:40:40;;;;;;;4.05;1.95;;;19.30;76.80;;;;;;5012227;28;20030;-72
2022/07/07 04:43:07;;;;;;;3.88;1.60;;;19.20;76.70;;;;;;5013424;28;20030;-71
2022/07/07 04:45:33;;;;;;;3.63;1.80;;;19.20;76.70;;;;;;5012426;28;20037;-72
2022/07/07 04:47:59;;;;;;;5.10;1.80;;;19.10;76.80;;;;;;5013782;28;20098;-72
2022/07/07 04:50:24;;;;;;;4.60;1.88;;;19.10;77.00;;;;;;5012517;28;20124;-72
2022/07/07 04:52:50;;;;;;;3.90;1.58;;;19.10;77.10;;;;;;5014101;28;20061;-71
2022/07/07 04:55:15;;;;;;;4.25;1.52;;;19.10;77.10;;;;;;5010301;28;20056;-71
2022/07/07 04:57:41;;;;;;;4.25;1.70;;;19.20;77.00;;;;;;5012110;28;20124;-71
2022/07/07 05:00:07;;;;;;;4.93;1.30;;;19.20;77.00;;;;;;5016413;28;20017;-71
2022/07/07 05:02:33;;;;;;;4.95;1.63;;;19.20;77.00;;;;;;5017106;28;20040;-71
2022/07/07 05:04:59;;;;;;;4.43;1.70;;;19.20;76.90;;;;;;5021795;28;20022;-71
2022/07/07 05:07:24;;;;;;;5.43;1.63;;;19.20;76.90;;;;;;5036511;28;20078;-71
2022/07/07 05:09:50;;;;;;;3.85;1.50;;;19.20;77.00;;;;;;5022921;28;20432;-72
2022/07/07 05:12:15;;;;;;;4.30;1.63;;;19.20;77.00;;;;;;5030334;28;20021;-71
2022/07/07 05:14:43;;;;;;;5.97;1.40;;;19.20;76.90;;;;;;5034811;28;20041;-71
2022/07/07 05:17:08;;;;;;;4.85;1.67;;;19.20;76.90;;;;;;5030970;28;20036;-71
2022/07/07 05:19:34;;;;;;;4.30;1.65;;;19.30;76.90;;;;;;5010820;28;20030;-71
2022/07/07 05:22:00;;;;;;;4.22;1.40;;;19.30;76.70;;;;;;5031201;28;20405;-71
2022/07/07 05:24:25;;;;;;;4.75;1.75;;;19.40;76.50;;;;;;5021449;28;20461;-71
2022/07/07 05:26:51;;;;;;;3.10;1.30;;;19.40;76.50;;;;;;5017432;28;20029;-71
2022/07/07 05:29:17;;;;;;;3.40;1.38;;;19.40;76.50;;;;;;5013896;28;20040;-71
2022/07/07 05:31:42;;;;;;;3.03;1.08;;;19.40;76.30;;;;;;5017196;28;20026;-71
2022/07/07 05:34:08;;;;;;;4.25;1.30;;;19.30;76.40;;;;;;5031557;28;20358;-71
2022/07/07 05:36:34;;;;;;;6.22;1.40;;;19.20;76.40;;;;;;5017128;28;20030;-71
2022/07/07 05:39:00;;;;;;;3.42;1.30;;;19.20;76.40;;;;;;5029374;28;20407;-71
2022/07/07 05:41:26;;;;;;;5.15;1.40;;;19.30;76.30;;;;;;5016005;28;20391;-71
2022/07/07 05:43:51;;;;;;;4.78;1.50;;;19.30;76.20;;;;;;5015793;28;20033;-71
2022/07/07 05:46:17;;;;;;;5.78;1.23;;;19.40;76.00;;;;;;5016253;28;20328;-71
2022/07/07 05:48:43;;;;;;;7.75;1.77;;;19.40;75.60;;;;;;5015741;28;20072;-73
2022/07/07 05:51:09;;;;;;;6.85;1.45;;;19.60;75.40;;;;;;5016417;28;20026;-72
2022/07/07 05:53:35;;;;;;;8.65;1.40;;;19.60;75.10;;;;;;5013600;28;20038;-73
2022/07/07 05:56:00;;;;;;;5.30;1.13;;;19.60;74.90;;;;;;5013672;28;20072;-72
2022/07/07 05:58:26;;;;;;;5.00;1.50;;;19.60;75.40;;;;;;5012222;28;20034;-72
2022/07/07 06:00:52;;;;;;;5.05;1.35;;;19.60;74.50;;;;;;5012751;28;20184;-72
2022/07/07 06:03:17;;;;;;;8.98;1.80;;;19.60;74.40;;;;;;5016424;28;20037;-72
2022/07/07 06:05:43;;;;;;;7.47;1.65;;;19.70;74.20;;;;;;5016710;28;20367;-72
2022/07/07 06:08:09;;;;;;;6.68;1.52;;;19.60;73.90;;;;;;5007689;28;20329;-72
2022/07/07 06:10:36;;;;;;;6.88;1.27;;;19.60;73.80;;;;;;5014227;28;20379;-71
2022/07/07 06:13:02;;;;;;;8.68;1.85;;;19.60;73.70;;;;;;5012879;28;20026;-71
2022/07/07 06:15:32;;;;;;;9.05;1.63;;;19.60;73.60;;;;;;5016692;28;20037;-70
2022/07/07 06:18:00;;;;;;;6.83;1.40;;;19.60;73.40;;;;;;5014585;28;20045;-71
2022/07/07 06:20:26;;;;;;;6.88;1.63;;;19.60;73.20;;;;;;5010237;28;20336;-71
2022/07/07 06:22:52;;;;;;;7.70;1.50;;;19.70;73.20;;;;;;5016597;28;20057;-70
2022/07/07 06:25:20;;;;;;;8.77;1.70;;;19.60;73.20;;;;;;5017424;28;20105;-70
2022/07/07 06:27:46;;;;;;;7.45;1.42;;;19.60;73.40;;;;;;5011229;28;20041;-70
2022/07/07 06:30:12;;;;;;;5.70;1.48;;;19.50;73.60;;;;;;5004586;28;20038;-70
2022/07/07 06:32:37;;;;;;;7.50;1.55;;;19.40;74.00;;;;;;5016610;28;20117;-70
2022/07/07 06:35:04;;;;;;;4.80;1.30;;;19.40;74.00;;;;;;5016552;28;20022;-70
2022/07/07 06:37:30;;;;;;;4.25;1.10;;;19.30;73.90;;;;;;5016106;28;20109;-70
2022/07/07 06:39:55;;;;;;;6.80;1.63;;;19.30;74.00;;;;;;5011254;28;20109;-70
2022/07/07 06:42:21;;;;;;;6.03;1.40;;;19.40;73.90;;;;;;5015683;28;20038;-70
2022/07/07 06:44:50;;;;;;;5.13;1.52;;;19.50;73.70;;;;;;5011313;28;20076;-70
2022/07/07 06:47:15;;;;;;;5.85;1.40;;;19.50;73.50;;;;;;5015313;28;20030;-71
2022/07/07 06:49:41;;;;;;;5.53;1.42;;;19.50;73.50;;;;;;5015271;28;20030;-71
2022/07/07 06:52:07;;;;;;;6.30;1.75;;;19.60;73.60;;;;;;5028404;28;20025;-71
2022/07/07 06:54:32;;;;;;;7.68;1.77;;;19.80;73.30;;;;;;5030624;28;20478;-71
2022/07/07 06:56:59;;;;;;;6.05;1.60;;;19.80;73.00;;;;;;4995174;28;20030;-71
2022/07/07 06:59:24;;;;;;;5.05;1.40;;;19.90;72.80;;;;;;5014916;28;20026;-71
2022/07/07 07:01:50;;;;;;;5.05;1.25;;;20.10;72.40;;;;;;5029036;28;20503;-71
2022/07/07 07:04:15;;;;;;;7.13;1.67;;;20.10;72.00;;;;;;5020339;28;20054;-70
2022/07/07 07:06:42;;;;;;;7.07;1.45;;;20.20;71.80;;;;;;5014612;28;20021;-70
2022/07/07 07:09:09;;;;;;;5.45;1.05;;;20.30;72.10;;;;;;5013763;28;20152;-70
2022/07/07 07:11:35;;;;;;;4.93;1.35;;;20.30;71.30;;;;;;5014068;28;20034;-71
2022/07/07 07:14:02;;;;;;;5.30;1.50;;;20.30;71.20;;;;;;5013406;28;20044;-72
2022/07/07 07:16:28;;;;;;;5.80;1.55;;;20.40;71.00;;;;;;5015215;28;20095;-71
2022/07/07 07:18:54;;;;;;;7.18;1.77;;;20.40;70.80;;;;;;5014216;28;20340;-72
2022/07/07 07:21:20;;;;;;;5.68;1.60;;;20.40;70.70;;;;;;5028435;28;20034;-71
2022/07/07 07:23:45;;;;;;;5.32;1.55;;;20.50;70.70;;;;;;5013747;28;20014;-71
2022/07/07 07:26:11;;;;;;;4.88;1.42;;;20.50;70.60;;;;;;5013803;28;20459;-71
2022/07/07 07:28:37;;;;;;;5.15;1.40;;;20.40;70.60;;;;;;5013081;28;20021;-71
2022/07/07 07:31:02;;;;;;;4.07;1.02;;;20.30;70.80;;;;;;5013063;28;20038;-71
2022/07/07 07:33:31;;;;;;;4.97;1.35;;;20.20;71.00;;;;;;5013069;28;20045;-72
2022/07/07 07:35:57;;;;;;;6.22;1.40;;;20.20;71.30;;;;;;5013549;28;20044;-71
2022/07/07 07:38:23;;;;;;;5.10;1.40;;;20.30;71.50;;;;;;5014940;28;20052;-71
2022/07/07 07:40:49;;;;;;;7.22;1.35;;;20.40;71.00;;;;;;5011255;28;20022;-72
2022/07/07 07:43:14;;;;;;;3.75;1.23;;;20.80;70.40;;;;;;5012795;28;20022;-71
2022/07/07 07:45:41;;;;;;;3.80;1.20;;;21.00;69.60;;;;;;5012792;28;20030;-71
2022/07/07 07:48:07;;;;;;;7.85;1.88;;;21.10;69.50;;;;;;5014135;28;20042;-73
2022/07/07 07:50:32;;;;;;;4.30;1.33;;;21.00;69.40;;;;;;5012228;28;20029;-68
2022/07/07 07:52:59;;;;;;;4.68;1.30;;;20.90;69.60;;;;;;5014712;28;20030;-69
2022/07/07 07:55:25;;;;;;;3.58;1.15;;;20.80;69.70;;;;;;5012927;28;20429;-68
2022/07/07 07:57:52;;;;;;;4.75;1.05;;;20.70;69.80;;;;;;5012967;28;20026;-68
2022/07/07 08:00:20;;;;;;;5.88;1.33;;;20.60;70.00;;;;;;5012846;28;20026;-67
2022/07/07 08:02:46;;;;;;;6.10;1.25;;;20.60;70.00;;;;;;5018201;28;20148;-68
2022/07/07 08:05:13;;;;;;;3.83;1.08;;;20.60;69.90;;;;;;5028987;28;20051;-68
2022/07/07 08:07:40;;;;;;;4.47;1.30;;;20.60;70.00;;;;;;5027413;28;20021;-68
2022/07/07 08:10:07;;;;;;;6.47;1.48;;;20.60;70.20;;;;;;5019567;28;20057;-68
2022/07/07 08:12:34;;;;;;;4.93;1.42;;;20.60;70.50;;;;;;5018749;28;20311;-68
2022/07/07 08:14:59;;;;;;;4.57;1.40;;;20.70;71.10;;;;;;5024612;28;20029;-66
2022/07/07 08:17:25;;;;;;;3.20;1.00;;;20.60;70.70;;;;;;5012555;28;20382;-67
2022/07/07 08:19:51;;;;;;;3.65;1.23;;;20.50;71.00;;;;;;5013786;28;20026;-67
2022/07/07 08:22:16;;;;;;;5.78;1.50;;;20.50;71.40;;;;;;5012220;28;20437;-67
2022/07/07 08:24:42;;;;;;;6.95;1.50;;;20.40;71.50;;;;;;5014076;28;20426;-67
2022/07/07 08:27:08;;;;;;;4.82;1.25;;;20.30;71.70;;;;;;5012256;28;20108;-68
2022/07/07 08:29:38;;;;;;;6.40;1.88;;;20.30;71.90;;;;;;5011791;28;20092;-67
2022/07/07 08:32:08;;;;;;;7.30;1.60;;;20.40;71.80;;;;;;5012351;28;20033;-67
2022/07/07 08:34:34;;;;;;;5.20;1.55;;;20.50;71.60;;;;;;5013944;28;20428;-67
2022/07/07 08:37:00;;;;;;;6.28;1.40;;;20.60;71.40;;;;;;5011081;28;20035;-67
2022/07/07 08:39:26;;;;;;;4.47;1.42;;;20.80;71.30;;;;;;5015777;28;20025;-68
2022/07/07 08:41:51;;;;;;;6.57;1.63;;;20.90;71.00;;;;;;5018201;28;20018;-68
2022/07/07 08:44:18;;;;;;;4.55;1.38;;;20.90;71.00;;;;;;5011187;28;20053;-67
2022/07/07 08:46:44;;;;;;;8.13;1.73;;;20.80;71.00;;;;;;5013880;28;20026;-68
2022/07/07 08:49:10;;;;;;;4.07;1.17;;;20.70;71.20;;;;;;5012822;28;20037;-68
2022/07/07 08:51:43;;;;;;;5.05;1.35;;;20.70;71.50;;;;;;5012945;28;20034;-69
2022/07/07 08:54:10;;;;;;;3.55;1.08;;;21.10;70.90;;;;;;5013046;28;20049;-68
2022/07/07 08:56:38;;;;;;;4.30;1.23;;;21.50;70.00;;;;;;5022926;28;20351;-68
2022/07/07 08:59:08;;;;;;;5.90;1.48;;;21.90;68.90;;;;;;5010281;28;20041;-68
2022/07/07 09:01:34;;;;;;;5.28;1.08;;;22.10;68.00;;;;;;5027844;28;20358;-67
2022/07/07 09:04:01;;;;;;;3.00;1.00;;;22.40;67.30;;;;;;5020733;28;20021;-68
2022/07/07 09:06:27;;;;;;;3.13;1.10;;;22.60;66.90;;;;;;5005594;28;20034;-69
2022/07/07 09:08:53;;;;;;;4.75;1.33;;;22.70;66.50;;;;;;5021887;28;20049;-69
2022/07/07 09:11:30;;;;;;;5.45;1.30;;;22.60;66.40;;;;;;5026990;28;20065;-68
2022/07/07 09:14:13;;;;;;;4.93;1.17;;;22.30;66.60;;;;;;5021058;28;20041;-68
2022/07/07 09:16:40;;;;;;;3.13;1.05;;;22.00;67.30;;;;;;5007646;28;20034;-68
2022/07/07 09:19:22;;;;;;;4.60;1.20;;;21.70;67.90;;;;;;5006485;28;20018;-68
2022/07/07 09:21:49;;;;;;;5.00;1.10;;;21.60;68.60;;;;;;5011204;28;20095;-68
2022/07/07 09:24:15;;;;;;;4.60;1.00;;;21.60;68.90;;;;;;5005440;28;20478;-68
2022/07/07 09:26:43;;;;;;;4.10;1.02;;;21.60;68.90;;;;;;4998578;28;20196;-69
2022/07/07 09:29:14;;;;;;;4.75;1.23;;;21.70;68.90;;;;;;5012778;28;20479;-68
2022/07/07 09:31:57;;;;;;;2.78;0.77;;;21.80;68.80;;;;;;5012672;28;20030;-68
2022/07/07 09:34:30;;;;;;;3.55;0.90;;;22.20;68.10;;;;;;5011109;28;20320;-68
2022/07/07 09:39:52;;;;;;;2.65;0.80;;;22.80;66.50;;;;;;5006254;28;20022;-69
2022/07/07 09:42:24;;;;;;;3.20;0.80;;;23.20;65.80;;;;;;5007451;28;20121;-70
2022/07/07 09:45:00;;;;;;;2.05;0.75;;;23.40;65.10;;;;;;5010991;28;20041;-69
2022/07/07 09:47:26;;;;;;;2.13;0.68;;;23.20;64.80;;;;;;5012145;28;20045;-69
2022/07/07 09:50:07;;;;;;;2.92;0.70;;;23.00;65.20;;;;;;5012731;28;20065;-69
2022/07/07 09:52:35;;;;;;;2.55;0.73;;;22.70;65.40;;;;;;5012720;28;20026;-69
2022/07/07 09:55:04;;;;;;;2.70;0.55;;;22.30;66.00;;;;;;5015597;28;20034;-69
2022/07/07 09:57:29;;;;;;;1.88;0.60;;;22.10;66.60;;;;;;5013767;28;20133;-70
2022/07/07 09:59:55;;;;;;;1.67;0.60;;;21.90;67.00;;;;;;5014684;28;20141;-68
2022/07/07 10:02:26;;;;;;;1.95;0.80;;;21.80;67.00;;;;;;5017023;28;20088;-68
2022/07/07 10:04:54;;;;;;;2.63;0.57;;;21.90;66.90;;;;;;5017405;28;20020;-68
2022/07/07 10:07:23;;;;;;;2.65;0.88;;;21.90;66.70;;;;;;5025896;28;20034;-69
2022/07/07 10:09:52;;;;;;;2.72;0.98;;;21.80;66.70;;;;;;5014754;28;20136;-68
2022/07/07 10:12:21;;;;;;;3.45;0.85;;;21.60;66.90;;;;;;5009899;28;20060;-68
2022/07/07 10:14:50;;;;;;;3.65;1.13;;;21.50;67.00;;;;;;5013318;28;20455;-68
2022/07/07 10:17:16;;;;;;;4.35;0.90;;;21.40;67.30;;;;;;5034428;28;20362;-68
2022/07/07 10:19:43;;;;;;;3.13;1.10;;;21.40;67.60;;;;;;5013201;28;20038;-68
2022/07/07 10:22:12;;;;;;;1.17;0.63;;;21.50;67.40;;;;;;5031268;28;20351;-68
2022/07/07 10:24:39;;;;;;;4.28;1.05;;;21.50;67.50;;;;;;5015626;28;20038;-68
2022/07/07 10:27:05;;;;;;;4.07;0.80;;;21.70;67.00;;;;;;5032185;28;20034;-68
2022/07/07 10:29:42;;;;;;;3.75;1.23;;;21.90;66.30;;;;;;5014425;28;20037;-68
2022/07/07 10:32:11;;;;;;;2.33;0.80;;;22.00;66.00;;;;;;5019667;28;20362;-68
2022/07/07 10:34:47;;;;;;;3.45;1.00;;;22.10;65.90;;;;;;5014734;28;20037;-68
2022/07/07 10:37:12;;;;;;;3.55;0.77;;;22.00;65.90;;;;;;5002736;28;20387;-68
2022/07/07 10:39:46;;;;;;;3.50;1.20;;;21.90;65.90;;;;;;5014303;28;20029;-70
2022/07/07 10:42:14;;;;;;;4.63;0.98;;;21.80;65.80;;;;;;5016731;28;20065;-70
2022/07/07 10:44:44;;;;;;;5.22;1.38;;;21.80;65.90;;;;;;5013403;28;20117;-69
2022/07/07 10:47:12;;;;;;;4.20;0.90;;;21.90;65.80;;;;;;5030791;28;20391;-69
2022/07/07 10:49:42;;;;;;;2.97;0.80;;;21.90;65.70;;;;;;5012232;28;20036;-69
2022/07/07 10:52:13;;;;;;;5.63;1.33;;;21.90;65.80;;;;;;4998680;28;20121;-68
2022/07/07 10:54:47;;;;;;;3.20;0.93;;;21.80;65.90;;;;;;5011214;28;20033;-68
2022/07/07 10:57:18;;;;;;;2.67;1.00;;;21.70;66.00;;;;;;5016492;28;20367;-68
2022/07/07 11:00:06;;;;;;;3.67;0.88;;;21.70;66.10;;;;;;5014308;28;20045;-70
2022/07/07 11:02:35;;;;;;;1.45;0.70;;;21.70;66.30;;;;;;5015223;28;20029;-70
2022/07/07 11:05:10;;;;;;;3.42;1.00;;;21.80;66.20;;;;;;5012053;28;20037;-70
2022/07/07 11:07:36;;;;;;;2.35;1.10;;;22.00;66.00;;;;;;5035822;28;20481;-70
2022/07/07 11:10:11;;;;;;;4.32;1.17;;;22.00;65.70;;;;;;5022885;28;20103;-70
2022/07/07 11:12:46;;;;;;;3.40;1.25;;;22.10;65.40;;;;;;5034916;28;20039;-70
2022/07/07 11:15:15;;;;;;;3.80;1.23;;;22.10;65.60;;;;;;5018171;28;20410;-70
2022/07/07 11:17:42;;;;;;;2.53;1.13;;;22.00;65.80;;;;;;5035665;28;20117;-69
2022/07/07 11:20:08;;;;;;;3.40;1.10;;;21.90;66.00;;;;;;5020967;28;20011;-69
2022/07/07 11:22:43;;;;;;;3.47;1.20;;;21.70;66.70;;;;;;5029807;28;20033;-69
2022/07/07 11:25:12;;;;;;;2.53;1.08;;;21.60;67.30;;;;;;5012342;28;20054;-69
2022/07/07 11:27:38;;;;;;;3.90;1.20;;;21.40;67.60;;;;;;5028391;28;20039;-69
2022/07/07 11:30:04;;;;;;;5.45;1.30;;;21.40;68.10;;;;;;5012682;28;20034;-69
2022/07/07 11:32:40;;;;;;;3.78;1.30;;;21.60;68.60;;;;;;5025188;28;20071;-69
2022/07/07 11:35:08;;;;;;;2.55;1.13;;;21.70;68.10;;;;;;5018532;28;20060;-69
2022/07/07 11:37:38;;;;;;;1.77;0.90;;;21.80;67.90;;;;;;5018143;28;20084;-68
2022/07/07 11:40:23;;;;;;;2.75;1.23;;;21.80;67.30;;;;;;5016619;28;20022;-68
2022/07/07 11:42:49;;;;;;;3.90;1.30;;;21.80;67.10;;;;;;5034832;28;20033;-68
2022/07/07 11:45:23;;;;;;;4.00;1.63;;;21.80;67.30;;;;;;5030423;28;20403;-68
2022/07/07 11:47:50;;;;;;;3.78;1.15;;;21.70;67.40;;;;;;5032662;28;20451;-68
2022/07/07 11:50:17;;;;;;;3.33;1.33;;;21.70;67.90;;;;;;5034263;28;20079;-68
2022/07/07 11:52:46;;;;;;;4.60;1.60;;;21.80;67.10;;;;;;5031466;28;20068;-68
2022/07/07 11:55:13;;;;;;;5.78;1.45;;;22.00;66.50;;;;;;5024097;28;20060;-68
2022/07/07 11:57:39;;;;;;;3.10;1.08;;;22.10;65.80;;;;;;5031240;28;20423;-68
2022/07/07 12:00:16;;;;;;;3.88;1.40;;;22.10;65.60;;;;;;5018658;28;20056;-68
2022/07/07 12:02:43;;;;;;;2.60;1.08;;;22.10;65.70;;;;;;5033596;28;20030;-68
2022/07/07 12:05:09;;;;;;;3.65;1.40;;;22.00;66.10;;;;;;5034047;28;20024;-69
2022/07/07 12:07:35;;;;;;;3.50;1.33;;;21.90;66.20;;;;;;5025019;28;20037;-68
2022/07/07 12:10:02;;;;;;;3.40;1.30;;;22.00;65.70;;;;;;5023636;28;20046;-68
2022/07/07 12:12:28;;;;;;;5.05;1.55;;;22.00;65.30;;;;;;5021998;28;20029;-68
2022/07/07 12:14:54;;;;;;;3.28;1.42;;;22.00;65.00;;;;;;5021265;28;20442;-68
2022/07/07 12:17:49;;;;;;;4.78;1.30;;;22.00;64.90;;;;;;5034486;28;20044;-68
2022/07/07 12:20:17;;;;;;;3.50;1.17;;;22.10;64.80;;;;;;5025884;28;20189;-68
2022/07/07 12:22:49;;;;;;;3.47;1.10;;;22.20;64.50;;;;;;5021599;28;20079;-68
2022/07/07 12:25:15;;;;;;;5.65;1.35;;;22.20;64.10;;;;;;5017118;28;20359;-68
2022/07/07 12:28:00;;;;;;;4.13;1.52;;;22.10;64.20;;;;;;5017052;28;20083;-69
2022/07/07 12:30:28;;;;;;;6.10;1.92;;;22.10;64.50;;;;;;5016323;28;20025;-68
2022/07/07 12:32:54;;;;;;;5.35;1.60;;;22.00;64.70;;;;;;5034831;28;20033;-68
2022/07/07 12:35:34;;;;;;;6.80;1.58;;;22.00;64.70;;;;;;5022570;28;20072;-68
2022/07/07 12:38:02;;;;;;;6.93;1.50;;;21.90;64.40;;;;;;4983288;28;20128;-69
2022/07/07 12:40:33;;;;;;;8.15;2.35;;;21.90;64.50;;;;;;5015253;28;20030;-68
2022/07/07 12:43:11;;;;;;;7.28;1.77;;;21.90;64.40;;;;;;5026798;28;20029;-68
2022/07/07 12:45:38;;;;;;;9.70;2.10;;;22.00;64.10;;;;;;5023087;28;20355;-63
2022/07/07 12:48:15;;;;;;;5.07;1.73;;;22.20;63.80;;;;;;5012200;28;20038;-63